sensor_id;sensor_type;location;lat;lon;timestamp;pressure;altitude;pressure_sealevel;temperature;humidity
53440;BME280;39333;47.044;15.080;2022-11-20T00:01:24;95681.03;;;2.93;82.57
53440;BME280;39333;47.044;15.080;2022-11-20T00:03:54;95671.81;;;2.91;82.73
53440;BME280;39333;47.044;15.080;2022-11-20T00:06:22;95680.44;;;2.98;83.05
53440;BME280;39333;47.044;15.080;2022-11-20T00:08:49;95677.63;;;2.99;83.09
53440;BME280;39333;47.044;15.080;2022-11-20T00:11:18;95670.56;;;3.00;82.93
53440;BME280;39333;47.044;15.080;2022-11-20T00:13:48;95672.78;;;3.03;82.74
53440;BME280;39333;47.044;15.080;2022-11-20T00:16:17;95683.03;;;3.04;82.51
53440;BME280;39333;47.044;15.080;2022-11-20T00:18:45;95683.63;;;3.06;82.99
53440;BME280;39333;47.044;15.080;2022-11-20T00:21:17;95695.28;;;3.10;82.79
53440;BME280;39333;47.044;15.080;2022-11-20T00:23:44;95696.09;;;3.11;82.46
53440;BME280;39333;47.044;15.080;2022-11-20T00:26:14;95693.28;;;3.12;82.52
53440;BME280;39333;47.044;15.080;2022-11-20T00:28:41;95699.72;;;3.16;82.51
53440;BME280;39333;47.044;15.080;2022-11-20T00:31:14;95703.72;;;3.19;82.17
53440;BME280;39333;47.044;15.080;2022-11-20T00:33:42;95697.69;;;3.19;82.22
53440;BME280;39333;47.044;15.080;2022-11-20T00:36:10;95696.88;;;3.18;82.02
53440;BME280;39333;47.044;15.080;2022-11-20T00:38:38;95695.06;;;3.19;81.91
53440;BME280;39333;47.044;15.080;2022-11-20T00:41:07;95684.00;;;3.16;81.98
53440;BME280;39333;47.044;15.080;2022-11-20T00:43:35;95686.81;;;3.15;82.15
53440;BME280;39333;47.044;15.080;2022-11-20T00:46:07;95690.84;;;3.17;82.28
53440;BME280;39333;47.044;15.080;2022-11-20T00:48:34;95704.13;;;3.16;82.45
53440;BME280;39333;47.044;15.080;2022-11-20T00:51:01;95711.38;;;3.21;82.39
53440;BME280;39333;47.044;15.080;2022-11-20T00:53:27;95711.38;;;3.21;82.34
53440;BME280;39333;47.044;15.080;2022-11-20T00:56:00;95713.81;;;3.15;81.97
53440;BME280;39333;47.044;15.080;2022-11-20T00:58:35;95714.25;;;3.06;81.95
53440;BME280;39333;47.044;15.080;2022-11-20T01:01:06;95701.38;;;3.04;82.58
53440;BME280;39333;47.044;15.080;2022-11-20T01:03:34;95716.28;;;2.97;82.46
53440;BME280;39333;47.044;15.080;2022-11-20T01:06:03;95711.25;;;2.96;83.23
53440;BME280;39333;47.044;15.080;2022-11-20T01:08:31;95711.44;;;3.01;83.26
53440;BME280;39333;47.044;15.080;2022-11-20T01:11:04;95726.41;;;2.80;83.00
53440;BME280;39333;47.044;15.080;2022-11-20T01:13:31;95731.09;;;2.52;84.43
53440;BME280;39333;47.044;15.080;2022-11-20T01:18:45;95729.72;;;2.17;86.71
53440;BME280;39333;47.044;15.080;2022-11-20T01:21:14;95732.72;;;2.20;87.15
53440;BME280;39333;47.044;15.080;2022-11-20T01:23:42;95731.94;;;2.26;87.40
53440;BME280;39333;47.044;15.080;2022-11-20T01:26:15;95721.84;;;1.97;87.67
53440;BME280;39333;47.044;15.080;2022-11-20T01:28:42;95733.31;;;1.96;88.34
53440;BME280;39333;47.044;15.080;2022-11-20T01:31:20;95738.97;;;2.06;88.58
53440;BME280;39333;47.044;15.080;2022-11-20T01:33:50;95729.72;;;2.10;88.20
53440;BME280;39333;47.044;15.080;2022-11-20T01:36:19;95737.75;;;2.15;88.26
53440;BME280;39333;47.044;15.080;2022-11-20T01:38:47;95723.28;;;2.19;87.96
53440;BME280;39333;47.044;15.080;2022-11-20T01:41:14;95727.09;;;2.30;87.47
53440;BME280;39333;47.044;15.080;2022-11-20T01:44:03;95718.66;;;2.01;87.76
53440;BME280;39333;47.044;15.080;2022-11-20T01:46:31;95722.47;;;2.12;87.76
53440;BME280;39333;47.044;15.080;2022-11-20T01:49:03;95723.25;;;2.32;87.75
53440;BME280;39333;47.044;15.080;2022-11-20T01:54:23;95724.84;;;2.53;86.49
53440;BME280;39333;47.044;15.080;2022-11-20T01:56:54;95721.63;;;2.58;85.51
53440;BME280;39333;47.044;15.080;2022-11-20T01:59:24;95722.41;;;2.65;85.24
53440;BME280;39333;47.044;15.080;2022-11-20T02:01:52;95725.22;;;2.70;84.84
53440;BME280;39333;47.044;15.080;2022-11-20T02:04:20;95734.91;;;2.76;84.36
53440;BME280;39333;47.044;15.080;2022-11-20T02:06:57;95727.41;;;2.79;84.32
53440;BME280;39333;47.044;15.080;2022-11-20T02:09:27;95721.97;;;2.81;84.10
53440;BME280;39333;47.044;15.080;2022-11-20T02:11:54;95723.78;;;2.87;83.67
53440;BME280;39333;47.044;15.080;2022-11-20T02:14:22;95727.81;;;2.90;83.62
53440;BME280;39333;47.044;15.080;2022-11-20T02:16:49;95730.00;;;2.93;83.64
53440;BME280;39333;47.044;15.080;2022-11-20T02:19:28;95723.75;;;2.94;83.61
53440;BME280;39333;47.044;15.080;2022-11-20T02:22:00;95729.38;;;2.97;83.34
53440;BME280;39333;47.044;15.080;2022-11-20T02:24:28;95722.13;;;2.93;83.22
53440;BME280;39333;47.044;15.080;2022-11-20T02:27:06;95730.38;;;2.96;82.84
53440;BME280;39333;47.044;15.080;2022-11-20T02:32:06;95721.13;;;3.00;83.15
53440;BME280;39333;47.044;15.080;2022-11-20T02:34:43;95719.09;;;3.02;82.67
53440;BME280;39333;47.044;15.080;2022-11-20T02:37:10;95712.25;;;3.01;82.75
53440;BME280;39333;47.044;15.080;2022-11-20T02:39:37;95716.06;;;3.05;82.68
53440;BME280;39333;47.044;15.080;2022-11-20T02:42:03;95710.03;;;3.05;82.94
53440;BME280;39333;47.044;15.080;2022-11-20T02:44:30;95715.69;;;3.02;82.59
53440;BME280;39333;47.044;15.080;2022-11-20T02:46:57;95707.44;;;2.98;82.55
53440;BME280;39333;47.044;15.080;2022-11-20T02:49:25;95688.09;;;2.99;82.78
53440;BME280;39333;47.044;15.080;2022-11-20T02:51:51;95699.19;;;2.95;83.09
53440;BME280;39333;47.044;15.080;2022-11-20T02:54:18;95688.34;;;2.91;82.92
53440;BME280;39333;47.044;15.080;2022-11-20T02:56:45;95699.81;;;2.90;83.24
53440;BME280;39333;47.044;15.080;2022-11-20T02:59:12;95687.31;;;2.92;83.30
53440;BME280;39333;47.044;15.080;2022-11-20T03:01:38;95689.34;;;2.90;82.88
53440;BME280;39333;47.044;15.080;2022-11-20T03:04:05;95688.69;;;2.95;83.00
53440;BME280;39333;47.044;15.080;2022-11-20T03:06:32;95690.34;;;2.89;83.31
53440;BME280;39333;47.044;15.080;2022-11-20T03:08:59;95683.31;;;2.90;83.57
53440;BME280;39333;47.044;15.080;2022-11-20T03:11:26;95680.88;;;2.88;83.23
53440;BME280;39333;47.044;15.080;2022-11-20T03:13:52;95685.72;;;2.91;83.04
53440;BME280;39333;47.044;15.080;2022-11-20T03:16:21;95682.66;;;2.94;83.01
53440;BME280;39333;47.044;15.080;2022-11-20T03:18:48;95677.63;;;2.93;83.37
53440;BME280;39333;47.044;15.080;2022-11-20T03:21:15;95682.25;;;2.97;83.34
53440;BME280;39333;47.044;15.080;2022-11-20T03:23:42;95678.41;;;3.00;82.77
53440;BME280;39333;47.044;15.080;2022-11-20T03:28:50;95678.22;;;3.01;83.00
53440;BME280;39333;47.044;15.080;2022-11-20T03:31:19;95680.03;;;3.01;82.59
53440;BME280;39333;47.044;15.080;2022-11-20T03:33:46;95679.22;;;3.00;82.66
53440;BME280;39333;47.044;15.080;2022-11-20T03:36:16;95682.25;;;3.04;82.65
53440;BME280;39333;47.044;15.080;2022-11-20T03:38:43;95686.25;;;3.06;82.80
53440;BME280;39333;47.044;15.080;2022-11-20T03:41:13;95678.41;;;3.06;82.42
53440;BME280;39333;47.044;15.080;2022-11-20T03:43:40;95680.22;;;3.06;82.26
53440;BME280;39333;47.044;15.080;2022-11-20T03:46:07;95678.81;;;3.03;82.64
53440;BME280;39333;47.044;15.080;2022-11-20T03:48:34;95680.25;;;2.93;82.34
53440;BME280;39333;47.044;15.080;2022-11-20T03:51:12;95683.09;;;2.85;82.90
53440;BME280;39333;47.044;15.080;2022-11-20T03:53:40;95688.94;;;2.87;83.17
53440;BME280;39333;47.044;15.080;2022-11-20T03:56:09;95684.09;;;2.90;83.09
53440;BME280;39333;47.044;15.080;2022-11-20T03:58:37;95682.66;;;2.94;83.00
53440;BME280;39333;47.044;15.080;2022-11-20T04:03:35;95678.63;;;2.98;82.69
53440;BME280;39333;47.044;15.080;2022-11-20T04:06:04;95677.19;;;3.02;82.74
53440;BME280;39333;47.044;15.080;2022-11-20T04:08:31;95680.41;;;3.04;82.86
53440;BME280;39333;47.044;15.080;2022-11-20T04:11:18;95669.13;;;3.04;82.56
53440;BME280;39333;47.044;15.080;2022-11-20T04:13:53;95669.13;;;3.04;82.45
53440;BME280;39333;47.044;15.080;2022-11-20T04:16:21;95670.34;;;3.01;82.43
53440;BME280;39333;47.044;15.080;2022-11-20T04:18:53;95665.13;;;2.95;82.29
53440;BME280;39333;47.044;15.080;2022-11-20T04:21:20;95665.78;;;2.90;82.88
53440;BME280;39333;47.044;15.080;2022-11-20T04:23:47;95661.72;;;2.94;82.56
53440;BME280;39333;47.044;15.080;2022-11-20T04:26:14;95664.53;;;2.99;82.90
53440;BME280;39333;47.044;15.080;2022-11-20T04:28:41;95664.31;;;3.01;82.65
53440;BME280;39333;47.044;15.080;2022-11-20T04:31:13;95666.34;;;2.99;82.35
53440;BME280;39333;47.044;15.080;2022-11-20T04:33:40;95663.50;;;3.00;82.26
53440;BME280;39333;47.044;15.080;2022-11-20T04:36:16;95660.47;;;3.03;82.70
53440;BME280;39333;47.044;15.080;2022-11-20T04:38:43;95662.09;;;3.04;82.51
53440;BME280;39333;47.044;15.080;2022-11-20T04:41:15;95658.06;;;3.02;82.30
53440;BME280;39333;47.044;15.080;2022-11-20T04:43:47;95653.44;;;2.97;82.61
53440;BME280;39333;47.044;15.080;2022-11-20T04:46:16;95652.81;;;3.02;82.71
53440;BME280;39333;47.044;15.080;2022-11-20T04:48:43;95642.34;;;3.02;82.36
53440;BME280;39333;47.044;15.080;2022-11-20T04:51:10;95643.78;;;2.98;82.15
53440;BME280;39333;47.044;15.080;2022-11-20T04:53:37;95644.38;;;2.93;82.52
53440;BME280;39333;47.044;15.080;2022-11-20T04:56:07;95643.38;;;2.94;82.22
53440;BME280;39333;47.044;15.080;2022-11-20T04:58:34;95643.81;;;2.91;82.60
53440;BME280;39333;47.044;15.080;2022-11-20T05:03:28;95637.38;;;2.87;82.43
53440;BME280;39333;47.044;15.080;2022-11-20T05:05:55;95635.97;;;2.91;82.68
53440;BME280;39333;47.044;15.080;2022-11-20T05:08:22;95636.53;;;2.93;82.70
53440;BME280;39333;47.044;15.080;2022-11-20T05:10:49;95631.94;;;2.89;82.33
53440;BME280;39333;47.044;15.080;2022-11-20T05:13:15;95625.09;;;2.88;82.24
53440;BME280;39333;47.044;15.080;2022-11-20T05:15:42;95619.66;;;2.89;82.23
53440;BME280;39333;47.044;15.080;2022-11-20T05:18:09;95630.72;;;2.91;82.37
53440;BME280;39333;47.044;15.080;2022-11-20T05:20:35;95635.16;;;2.91;82.36
53440;BME280;39333;47.044;15.080;2022-11-20T05:23:02;95632.75;;;2.89;82.29
53440;BME280;39333;47.044;15.080;2022-11-20T05:25:29;95629.94;;;2.91;82.48
53440;BME280;39333;47.044;15.080;2022-11-20T05:27:55;95626.50;;;2.90;82.42
53440;BME280;39333;47.044;15.080;2022-11-20T05:30:22;95640.00;;;2.87;82.21
53440;BME280;39333;47.044;15.080;2022-11-20T05:32:49;95635.78;;;2.86;81.96
53440;BME280;39333;47.044;15.080;2022-11-20T05:35:15;95637.19;;;2.89;82.42
53440;BME280;39333;47.044;15.080;2022-11-20T05:37:42;95635.38;;;2.89;82.27
53440;BME280;39333;47.044;15.080;2022-11-20T05:40:09;95635.97;;;2.85;81.92
53440;BME280;39333;47.044;15.080;2022-11-20T05:42:36;95645.44;;;2.86;82.18
53440;BME280;39333;47.044;15.080;2022-11-20T05:45:04;95640.22;;;2.86;82.35
53440;BME280;39333;47.044;15.080;2022-11-20T05:47:32;95643.84;;;2.85;82.13
53440;BME280;39333;47.044;15.080;2022-11-20T05:49:59;95644.44;;;2.87;82.15
53440;BME280;39333;47.044;15.080;2022-11-20T05:52:29;95642.03;;;2.85;81.96
53440;BME280;39333;47.044;15.080;2022-11-20T05:54:56;95642.22;;;2.84;82.26
53440;BME280;39333;47.044;15.080;2022-11-20T05:57:23;95640.63;;;2.83;82.02
53440;BME280;39333;47.044;15.080;2022-11-20T05:59:50;95643.84;;;2.85;82.10
53440;BME280;39333;47.044;15.080;2022-11-20T06:02:16;95643.03;;;2.84;81.92
53440;BME280;39333;47.044;15.080;2022-11-20T06:04:43;95652.31;;;2.80;81.89
53440;BME280;39333;47.044;15.080;2022-11-20T06:07:10;95649.09;;;2.78;82.02
53440;BME280;39333;47.044;15.080;2022-11-20T06:09:37;95647.72;;;2.75;81.95
53440;BME280;39333;47.044;15.080;2022-11-20T06:12:04;95647.47;;;2.77;81.88
53440;BME280;39333;47.044;15.080;2022-11-20T06:14:30;95644.84;;;2.77;82.03
53440;BME280;39333;47.044;15.080;2022-11-20T06:16:57;95648.50;;;2.76;82.13
53440;BME280;39333;47.044;15.080;2022-11-20T06:19:24;95654.53;;;2.76;82.05
53440;BME280;39333;47.044;15.080;2022-11-20T06:21:51;95659.00;;;2.76;82.24
53440;BME280;39333;47.044;15.080;2022-11-20T06:24:17;95655.97;;;2.66;82.57
53440;BME280;39333;47.044;15.080;2022-11-20T06:26:44;95653.38;;;2.66;82.17
53440;BME280;39333;47.044;15.080;2022-11-20T06:29:11;95670.06;;;2.65;82.30
53440;BME280;39333;47.044;15.080;2022-11-20T06:31:38;95669.31;;;2.58;82.58
53440;BME280;39333;47.044;15.080;2022-11-20T06:34:05;95669.66;;;2.61;82.59
53440;BME280;39333;47.044;15.080;2022-11-20T06:36:32;95671.69;;;2.66;82.43
53440;BME280;39333;47.044;15.080;2022-11-20T06:39:00;95678.56;;;2.54;82.77
53440;BME280;39333;47.044;15.080;2022-11-20T06:41:27;95683.00;;;2.60;83.20
53440;BME280;39333;47.044;15.080;2022-11-20T06:43:54;95681.53;;;2.64;82.94
53440;BME280;39333;47.044;15.080;2022-11-20T06:46:21;95691.41;;;2.62;82.66
53440;BME280;39333;47.044;15.080;2022-11-20T06:48:49;95695.63;;;2.63;82.72
53440;BME280;39333;47.044;15.080;2022-11-20T06:51:16;95701.88;;;2.68;82.51
53440;BME280;39333;47.044;15.080;2022-11-20T06:53:43;95701.88;;;2.75;82.71
53440;BME280;39333;47.044;15.080;2022-11-20T06:56:10;95705.88;;;2.77;82.20
53440;BME280;39333;47.044;15.080;2022-11-20T06:58:37;95705.47;;;2.80;82.11
53440;BME280;39333;47.044;15.080;2022-11-20T07:01:11;95707.88;;;2.82;82.02
53440;BME280;39333;47.044;15.080;2022-11-20T07:03:39;95709.09;;;2.86;82.04
53440;BME280;39333;47.044;15.080;2022-11-20T07:06:06;95707.66;;;2.90;82.29
53440;BME280;39333;47.044;15.080;2022-11-20T07:08:33;95707.03;;;2.95;81.90
53440;BME280;39333;47.044;15.080;2022-11-20T07:11:02;95711.84;;;2.98;81.33
53440;BME280;39333;47.044;15.080;2022-11-20T07:13:29;95706.22;;;3.01;81.63
53440;BME280;39333;47.044;15.080;2022-11-20T07:16:04;95712.25;;;3.01;81.44
53440;BME280;39333;47.044;15.080;2022-11-20T07:18:32;95712.44;;;3.06;80.91
53440;BME280;39333;47.044;15.080;2022-11-20T07:21:07;95718.84;;;3.10;81.06
53440;BME280;39333;47.044;15.080;2022-11-20T07:23:34;95712.19;;;3.14;80.80
53440;BME280;39333;47.044;15.080;2022-11-20T07:26:09;95714.63;;;3.09;81.09
53440;BME280;39333;47.044;15.080;2022-11-20T07:28:36;95709.63;;;3.08;80.90
53440;BME280;39333;47.044;15.080;2022-11-20T07:31:04;95712.00;;;3.09;80.93
53440;BME280;39333;47.044;15.080;2022-11-20T07:33:31;95720.25;;;3.13;80.94
53440;BME280;39333;47.044;15.080;2022-11-20T07:35:59;95729.72;;;3.14;80.94
53440;BME280;39333;47.044;15.080;2022-11-20T07:38:26;95722.28;;;3.17;81.19
53440;BME280;39333;47.044;15.080;2022-11-20T07:40:56;95722.69;;;3.14;80.83
53440;BME280;39333;47.044;15.080;2022-11-20T07:43:30;95716.44;;;3.15;80.82
53440;BME280;39333;47.044;15.080;2022-11-20T07:46:00;95729.06;;;3.25;81.00
53440;BME280;39333;47.044;15.080;2022-11-20T07:48:27;95728.47;;;3.30;80.66
53440;BME280;39333;47.044;15.080;2022-11-20T07:50:55;95734.91;;;3.34;80.84
53440;BME280;39333;47.044;15.080;2022-11-20T07:53:23;95733.47;;;3.38;80.68
53440;BME280;39333;47.044;15.080;2022-11-20T07:55:49;95729.41;;;3.42;80.80
53440;BME280;39333;47.044;15.080;2022-11-20T07:58:19;95735.84;;;3.46;80.37
53440;BME280;39333;47.044;15.080;2022-11-20T08:00:46;95737.47;;;3.47;80.12
53440;BME280;39333;47.044;15.080;2022-11-20T08:03:13;95733.06;;;3.41;80.76
53440;BME280;39333;47.044;15.080;2022-11-20T08:05:42;95741.28;;;3.44;80.67
53440;BME280;39333;47.044;15.080;2022-11-20T08:08:09;95738.66;;;3.44;80.40
53440;BME280;39333;47.044;15.080;2022-11-20T08:10:35;95742.69;;;3.47;80.45
53440;BME280;39333;47.044;15.080;2022-11-20T08:13:02;95746.94;;;3.48;80.24
53440;BME280;39333;47.044;15.080;2022-11-20T08:15:49;95745.91;;;3.49;80.13
53440;BME280;39333;47.044;15.080;2022-11-20T08:18:17;95745.50;;;3.52;79.90
53440;BME280;39333;47.044;15.080;2022-11-20T08:21:05;95749.09;;;3.58;79.86
53440;BME280;39333;47.044;15.080;2022-11-20T08:23:32;95748.25;;;3.64;80.13
53440;BME280;39333;47.044;15.080;2022-11-20T08:25:58;95760.13;;;3.73;80.27
53440;BME280;39333;47.044;15.080;2022-11-20T08:28:25;95753.00;;;3.80;80.60
53440;BME280;39333;47.044;15.080;2022-11-20T08:30:58;95759.38;;;3.91;80.52
53440;BME280;39333;47.044;15.080;2022-11-20T08:33:25;95761.59;;;3.94;80.16
53440;BME280;39333;47.044;15.080;2022-11-20T08:35:51;95762.59;;;3.93;79.54
53440;BME280;39333;47.044;15.080;2022-11-20T08:38:18;95776.91;;;3.97;79.49
53440;BME280;39333;47.044;15.080;2022-11-20T08:40:45;95766.44;;;3.90;79.51
53440;BME280;39333;47.044;15.080;2022-11-20T08:43:31;95771.56;;;3.78;80.24
53440;BME280;39333;47.044;15.080;2022-11-20T08:45:58;95768.31;;;3.90;80.50
53440;BME280;39333;47.044;15.080;2022-11-20T08:48:24;95773.56;;;4.14;79.98
53440;BME280;39333;47.044;15.080;2022-11-20T08:50:51;95775.25;;;4.34;79.42
53440;BME280;39333;47.044;15.080;2022-11-20T08:53:18;95775.53;;;4.50;79.02
53440;BME280;39333;47.044;15.080;2022-11-20T08:55:44;95779.22;;;4.68;78.83
53440;BME280;39333;47.044;15.080;2022-11-20T08:58:11;95782.00;;;4.73;77.83
53440;BME280;39333;47.044;15.080;2022-11-20T09:00:38;95781.56;;;4.76;77.99
53440;BME280;39333;47.044;15.080;2022-11-20T09:03:05;95776.75;;;4.73;77.57
53440;BME280;39333;47.044;15.080;2022-11-20T09:05:31;95774.56;;;4.70;77.64
53440;BME280;39333;47.044;15.080;2022-11-20T09:07:58;95779.56;;;4.71;77.72
53440;BME280;39333;47.044;15.080;2022-11-20T09:10:28;95793.50;;;4.72;77.61
53440;BME280;39333;47.044;15.080;2022-11-20T09:12:55;95777.91;;;4.77;77.83
53440;BME280;39333;47.044;15.080;2022-11-20T09:15:23;95775.16;;;4.90;77.90
53440;BME280;39333;47.044;15.080;2022-11-20T09:17:55;95774.53;;;4.95;77.00
53440;BME280;39333;47.044;15.080;2022-11-20T09:20:22;95773.78;;;5.06;77.09
53440;BME280;39333;47.044;15.080;2022-11-20T09:22:48;95765.06;;;5.12;77.13
53440;BME280;39333;47.044;15.080;2022-11-20T09:25:15;95773.00;;;5.05;77.18
53440;BME280;39333;47.044;15.080;2022-11-20T09:27:42;95770.56;;;5.04;77.46
53440;BME280;39333;47.044;15.080;2022-11-20T09:30:11;95762.78;;;5.15;77.64
53440;BME280;39333;47.044;15.080;2022-11-20T09:32:44;95758.41;;;5.27;77.66
53440;BME280;39333;47.044;15.080;2022-11-20T09:35:11;95765.75;;;5.37;77.07
53440;BME280;39333;47.044;15.080;2022-11-20T09:37:38;95762.41;;;5.48;76.43
53440;BME280;39333;47.044;15.080;2022-11-20T09:40:05;95767.44;;;5.68;76.49
53440;BME280;39333;47.044;15.080;2022-11-20T09:43:17;95770.47;;;5.83;75.76
53440;BME280;39333;47.044;15.080;2022-11-20T09:48:56;95761.06;;;6.06;74.16
53440;BME280;39333;47.044;15.080;2022-11-20T09:51:39;95754.34;;;6.21;74.23
53440;BME280;39333;47.044;15.080;2022-11-20T09:54:20;95756.78;;;6.35;74.29
53440;BME280;39333;47.044;15.080;2022-11-20T09:56:58;95754.88;;;6.53;74.59
53440;BME280;39333;47.044;15.080;2022-11-20T09:59:43;95752.00;;;6.43;74.38
53440;BME280;39333;47.044;15.080;2022-11-20T10:07:52;95752.28;;;6.65;75.12
53440;BME280;39333;47.044;15.080;2022-11-20T10:10:35;95741.59;;;6.83;73.44
53440;BME280;39333;47.044;15.080;2022-11-20T10:16:00;95737.13;;;6.95;73.66
53440;BME280;39333;47.044;15.080;2022-11-20T10:24:56;95734.78;;;7.74;69.60
53440;BME280;39333;47.044;15.080;2022-11-20T10:30:19;95730.97;;;7.98;67.68
53440;BME280;39333;47.044;15.080;2022-11-20T10:32:54;95724.84;;;8.10;68.13
53440;BME280;39333;47.044;15.080;2022-11-20T10:35:32;95730.13;;;8.38;68.99
53440;BME280;39333;47.044;15.080;2022-11-20T10:38:09;95730.59;;;8.68;66.97
53440;BME280;39333;47.044;15.080;2022-11-20T10:40:44;95727.63;;;9.20;66.00
53440;BME280;39333;47.044;15.080;2022-11-20T10:43:19;95721.91;;;9.50;66.26
53440;BME280;39333;47.044;15.080;2022-11-20T10:46:00;95724.94;;;9.86;65.95
53440;BME280;39333;47.044;15.080;2022-11-20T10:48:31;95713.94;;;9.99;62.35
53440;BME280;39333;47.044;15.080;2022-11-20T10:59:24;95720.66;;;10.33;64.87
53440;BME280;39333;47.044;15.080;2022-11-20T11:01:45;95722.31;;;10.71;62.86
53440;BME280;39333;47.044;15.080;2022-11-20T11:04:29;95712.63;;;10.55;64.20
53440;BME280;39333;47.044;15.080;2022-11-20T11:07:06;95714.38;;;10.44;65.58
53440;BME280;39333;47.044;15.080;2022-11-20T11:09:41;95706.22;;;10.88;63.96
53440;BME280;39333;47.044;15.080;2022-11-20T11:12:09;95712.56;;;11.29;63.26
53440;BME280;39333;47.044;15.080;2022-11-20T11:14:45;95705.50;;;11.60;62.24
53440;BME280;39333;47.044;15.080;2022-11-20T11:17:22;95704.28;;;11.83;62.27
53440;BME280;39333;47.044;15.080;2022-11-20T11:22:46;95691.88;;;12.14;63.42
53440;BME280;39333;47.044;15.080;2022-11-20T11:25:24;95700.91;;;12.23;62.38
53440;BME280;39333;47.044;15.080;2022-11-20T11:27:52;95699.03;;;12.39;59.98
53440;BME280;39333;47.044;15.080;2022-11-20T11:30:19;95704.63;;;12.52;59.61
53440;BME280;39333;47.044;15.080;2022-11-20T11:32:47;95704.63;;;12.73;59.19
53440;BME280;39333;47.044;15.080;2022-11-20T11:35:22;95701.66;;;13.05;59.64
53440;BME280;39333;47.044;15.080;2022-11-20T11:37:49;95692.59;;;13.16;59.58
53440;BME280;39333;47.044;15.080;2022-11-20T11:40:18;95692.88;;;11.93;57.79
53440;BME280;39333;47.044;15.080;2022-11-20T11:43:02;95697.19;;;11.31;59.67
53440;BME280;39333;47.044;15.080;2022-11-20T11:45:30;95691.34;;;10.45;62.18
53440;BME280;39333;47.044;15.080;2022-11-20T11:47:58;95700.16;;;10.24;63.89
53440;BME280;39333;47.044;15.080;2022-11-20T11:50:28;95692.81;;;10.31;63.85
53440;BME280;39333;47.044;15.080;2022-11-20T11:55:49;95691.25;;;9.32;67.70
53440;BME280;39333;47.044;15.080;2022-11-20T11:58:47;95687.91;;;8.98;71.34
53440;BME280;39333;47.044;15.080;2022-11-20T12:01:29;95685.16;;;9.10;73.72
53440;BME280;39333;47.044;15.080;2022-11-20T12:06:50;95689.91;;;9.52;73.15
53440;BME280;39333;47.044;15.080;2022-11-20T12:09:20;95681.63;;;9.70;73.43
53440;BME280;39333;47.044;15.080;2022-11-20T12:11:55;95682.66;;;9.96;73.02
53440;BME280;39333;47.044;15.080;2022-11-20T12:14:37;95682.47;;;10.02;72.88
53440;BME280;39333;47.044;15.080;2022-11-20T12:17:05;95682.28;;;10.36;71.46
53440;BME280;39333;47.044;15.080;2022-11-20T12:19:34;95688.09;;;10.70;69.96
53440;BME280;39333;47.044;15.080;2022-11-20T12:25:01;95685.53;;;10.48;68.26
53440;BME280;39333;47.044;15.080;2022-11-20T12:30:18;95688.91;;;10.11;66.23
53440;BME280;39333;47.044;15.080;2022-11-20T12:38:43;95691.22;;;9.76;67.37
53440;BME280;39333;47.044;15.080;2022-11-20T13:07:02;95690.25;;;10.78;67.26
53440;BME280;39333;47.044;15.080;2022-11-20T13:09:32;95690.91;;;10.58;68.78
53440;BME280;39333;47.044;15.080;2022-11-20T13:19:37;95677.50;;;10.11;70.87
53440;BME280;39333;47.044;15.080;2022-11-20T13:22:05;95673.78;;;10.34;70.37
53440;BME280;39333;47.044;15.080;2022-11-20T13:24:32;95678.19;;;10.60;69.15
53440;BME280;39333;47.044;15.080;2022-11-20T13:29:30;95666.28;;;10.63;69.72
53440;BME280;39333;47.044;15.080;2022-11-20T13:35:00;95670.00;;;10.62;68.17
53440;BME280;39333;47.044;15.080;2022-11-20T13:37:35;95672.13;;;10.28;68.42
53440;BME280;39333;47.044;15.080;2022-11-20T13:45:30;95672.47;;;10.09;69.47
53440;BME280;39333;47.044;15.080;2022-11-20T13:48:02;95665.75;;;9.70;70.20
53440;BME280;39333;47.044;15.080;2022-11-20T13:53:15;95668.88;;;9.67;72.32
53440;BME280;39333;47.044;15.080;2022-11-20T13:56:06;95654.72;;;9.29;70.50
53440;BME280;39333;47.044;15.080;2022-11-20T14:01:25;95660.34;;;8.94;74.41
53440;BME280;39333;47.044;15.080;2022-11-20T14:03:53;95665.25;;;9.02;75.55
53440;BME280;39333;47.044;15.080;2022-11-20T14:06:41;95665.97;;;8.98;74.76
53440;BME280;39333;47.044;15.080;2022-11-20T14:09:12;95665.16;;;8.97;75.45
53440;BME280;39333;47.044;15.080;2022-11-20T14:11:46;95667.44;;;8.89;75.18
53440;BME280;39333;47.044;15.080;2022-11-20T14:14:16;95665.34;;;8.91;75.65
53440;BME280;39333;47.044;15.080;2022-11-20T14:16:46;95665.34;;;9.12;75.15
53440;BME280;39333;47.044;15.080;2022-11-20T14:21:52;95656.88;;;9.32;73.13
53440;BME280;39333;47.044;15.080;2022-11-20T14:24:21;95655.03;;;9.33;72.83
53440;BME280;39333;47.044;15.080;2022-11-20T14:26:50;95659.50;;;9.10;72.34
53440;BME280;39333;47.044;15.080;2022-11-20T14:29:21;95653.19;;;8.90;73.84
53440;BME280;39333;47.044;15.080;2022-11-20T14:31:52;95655.13;;;8.77;74.28
53440;BME280;39333;47.044;15.080;2022-11-20T14:34:25;95651.22;;;8.63;74.59
53440;BME280;39333;47.044;15.080;2022-11-20T14:36:56;95651.88;;;8.54;75.20
53440;BME280;39333;47.044;15.080;2022-11-20T14:39:35;95654.06;;;8.40;74.58
53440;BME280;39333;47.044;15.080;2022-11-20T14:42:17;95645.56;;;8.04;73.78
53440;BME280;39333;47.044;15.080;2022-11-20T14:44:44;95654.84;;;7.90;75.54
53440;BME280;39333;47.044;15.080;2022-11-20T14:47:19;95656.44;;;7.91;76.72
53440;BME280;39333;47.044;15.080;2022-11-20T14:49:49;95657.47;;;7.90;76.71
53440;BME280;39333;47.044;15.080;2022-11-20T14:52:21;95661.16;;;7.89;76.12
53440;BME280;39333;47.044;15.080;2022-11-20T14:54:56;95659.28;;;7.73;76.31
53440;BME280;39333;47.044;15.080;2022-11-20T14:57:34;95664.84;;;7.60;76.52
53440;BME280;39333;47.044;15.080;2022-11-20T15:02:30;95669.81;;;7.56;76.59
53440;BME280;39333;47.044;15.080;2022-11-20T15:04:58;95669.88;;;7.33;76.56
53440;BME280;39333;47.044;15.080;2022-11-20T15:07:31;95678.97;;;7.25;77.38
53440;BME280;39333;47.044;15.080;2022-11-20T15:10:09;95672.22;;;7.18;77.37
53440;BME280;39333;47.044;15.080;2022-11-20T15:12:41;95674.44;;;7.09;77.31
53440;BME280;39333;47.044;15.080;2022-11-20T15:15:15;95686.00;;;7.08;77.07